Time;durP1;ratioP1;P1;durP2;ratioP2;P2;SDS_P1;SDS_P2;PMS_P1;PMS_P2;Temp;Humidity;BMP_temperature;BMP_pressure;BME280_temperature;BME280_humidity;BME280_pressure;Samples;Min_cycle;Max_cycle;Signal;HPM_P1;HPM_P2
2022/12/27 00:00:07;;;;;;;;;1.75;1.75;;;;;7.77;67.19;102104.56;5016020;28;45314;-58
2022/12/27 00:02:36;;;;;;;;;3.00;1.00;;;;;7.78;67.17;102114.25;5016793;28;45427;-57
2022/12/27 00:05:01;;;;;;;;;3.00;3.00;;;;;7.74;67.66;102104.63;5016657;28;45498;-57
2022/12/27 00:07:26;;;;;;;;;3.00;3.00;;;;;7.81;67.57;102107.13;5016480;28;46294;-57
2022/12/27 00:09:52;;;;;;;;;3.25;3.25;;;;;7.83;67.13;102112.38;5016349;28;45419;-57
2022/12/27 00:12:17;;;;;;;;;2.25;2.25;;;;;7.79;67.56;102103.59;5016178;28;45227;-58
2022/12/27 00:14:43;;;;;;;;;2.25;2.25;;;;;7.83;67.46;102113.25;5016598;28;45510;-56
2022/12/27 00:17:08;;;;;;;;;3.25;3.25;;;;;7.84;67.45;102114.13;5016271;28;45374;-58
2022/12/27 00:19:33;;;;;;;;;5.25;2.00;;;;;7.78;67.29;102099.22;4998655;28;45432;-58
2022/12/27 00:21:59;;;;;;;;;3.25;3.25;;;;;7.80;67.60;102109.78;5016390;28;57770;-57
2022/12/27 00:24:25;;;;;;;;;3.50;1.50;;;;;7.79;67.75;102108.03;5016601;28;45232;-58
2022/12/27 00:26:50;;;;;;;;;2.25;2.25;;;;;7.87;67.69;102125.53;5015956;28;46225;-57
2022/12/27 00:29:15;;;;;;;;;1.00;1.00;;;;;7.81;68.09;102112.41;5015968;28;45251;-57
2022/12/27 00:31:41;;;;;;;;;2.25;1.00;;;;;7.86;67.95;102125.56;5016067;28;45387;-58
2022/12/27 00:34:06;;;;;;;;;2.00;2.00;;;;;7.84;68.13;102120.31;5016000;28;45285;-57
2022/12/27 00:36:33;;;;;;;;;3.25;3.25;;;;;7.82;67.74;102118.59;4998104;28;45999;-57
2022/12/27 00:38:59;;;;;;;;;5.00;2.00;;;;;7.78;67.78;102115.09;5015910;28;45501;-57
2022/12/27 00:41:24;;;;;;;;;2.25;2.25;;;;;7.81;67.35;102127.41;4997872;28;45355;-57
2022/12/27 00:43:50;;;;;;;;;6.75;3.25;;;;;7.81;67.97;102124.75;5015867;28;45485;-59
2022/12/27 00:46:16;;;;;;;;;3.25;3.25;;;;;7.80;67.64;102130.97;5015440;28;46254;-57
2022/12/27 00:48:42;;;;;;;;;2.00;2.00;;;;;7.72;67.97;102111.72;4997666;28;45453;-57
2022/12/27 00:51:14;;;;;;;;;4.75;3.25;;;;;7.76;67.78;102127.50;4997579;28;45319;-59
2022/12/27 00:53:39;;;;;;;;;3.25;3.25;;;;;7.77;68.26;102131.91;5015810;28;45522;-57
2022/12/27 00:56:10;;;;;;;;;2.25;2.25;;;;;7.74;68.31;102129.31;5015091;28;46285;-57
2022/12/27 00:58:36;;;;;;;;;3.50;3.00;;;;;7.76;68.45;102130.16;5015648;28;45351;-57
2022/12/27 01:01:06;;;;;;;;;2.25;1.75;;;;;7.68;68.19;102132.97;4998441;28;45405;-57
2022/12/27 01:03:32;;;;;;;;;2.00;2.00;;;;;7.65;68.38;102127.72;5016483;28;45560;-58
2022/12/27 01:06:06;;;;;;;;;2.00;1.00;;;;;7.72;67.96;102132.91;4998187;28;45802;-58
2022/12/27 01:08:32;;;;;;;;;5.00;5.00;;;;;7.71;68.02;102144.41;5018613;28;45309;-57
2022/12/27 01:10:58;;;;;;;;;5.50;3.25;;;;;7.71;68.37;102141.75;5023057;28;45386;-56
2022/12/27 01:13:23;;;;;;;;;8.50;2.00;;;;;7.52;68.50;102115.63;5039597;28;45322;-57
2022/12/27 01:15:49;;;;;;;;;5.00;2.00;;;;;7.60;68.82;102129.59;5029826;28;45256;-57
2022/12/27 01:18:14;;;;;;;;;2.25;2.00;;;;;7.68;68.75;102143.56;5018763;28;45244;-57
2022/12/27 01:20:39;;;;;;;;;2.00;2.00;;;;;7.66;68.58;102142.69;5018858;28;45339;-57
2022/12/27 01:23:05;;;;;;;;;5.00;2.00;;;;;7.68;68.86;102150.63;5018642;28;51683;-57
2022/12/27 01:25:30;;;;;;;;;5.00;5.00;;;;;7.68;68.31;102140.94;5018467;28;45792;-57
2022/12/27 01:27:55;;;;;;;;;3.25;3.25;;;;;7.71;68.66;102139.13;5018459;28;45707;-58
2022/12/27 01:30:21;;;;;;;;;1.75;1.75;;;;;7.69;68.42;102140.03;5018241;28;45250;-58
2022/12/27 01:32:46;;;;;;;;;3.25;2.00;;;;;7.68;68.83;102142.66;5018734;28;45463;-56
2022/12/27 01:35:12;;;;;;;;;1.00;1.00;;;;;7.67;68.36;102141.78;5018261;28;46236;-57
2022/12/27 01:37:37;;;;;;;;;4.50;2.00;;;;;7.69;68.47;102142.66;5018202;28;45426;-58
2022/12/27 01:40:03;;;;;;;;;1.75;1.25;;;;;7.69;68.37;102145.31;5018605;28;45383;-58
2022/12/27 01:45:18;;;;;;;;;4.50;2.00;;;;;7.70;68.59;102151.47;5018289;28;45783;-57
2022/12/27 01:47:50;;;;;;;;;3.25;3.25;;;;;7.71;68.79;102157.66;5018202;28;45312;-57
2022/12/27 01:50:25;;;;;;;;;2.00;2.00;;;;;7.74;68.58;102160.22;5018086;28;45452;-58
2022/12/27 01:53:15;;;;;;;;;2.25;2.25;;;;;7.73;68.59;102155.84;5018030;28;45555;-57
2022/12/27 01:55:53;;;;;;;;;5.00;2.00;;;;;7.73;68.63;102161.13;5017967;28;45279;-57
2022/12/27 01:58:27;;;;;;;;;4.25;4.25;;;;;7.74;68.64;102162.88;5017912;28;45460;-57
2022/12/27 02:00:53;;;;;;;;;2.00;2.00;;;;;7.75;68.65;102164.63;5018165;28;45451;-57
2022/12/27 02:03:24;;;;;;;;;3.50;2.00;;;;;7.75;69.14;102164.63;5018047;28;45427;-58
2022/12/27 02:05:50;;;;;;;;;2.50;2.50;;;;;7.76;69.03;102166.38;5017031;28;45310;-57
2022/12/27 02:08:15;;;;;;;;;3.50;1.75;;;;;7.76;68.72;102167.25;5017774;28;45332;-58
2022/12/27 02:10:42;;;;;;;;;2.75;2.00;;;;;7.73;68.68;102167.31;5017722;28;45329;-58
2022/12/27 02:13:07;;;;;;;;;1.75;1.00;;;;;7.73;68.56;102187.63;5018291;28;45366;-58
2022/12/27 02:15:33;;;;;;;;;6.50;3.00;;;;;7.69;68.88;102182.38;5017658;28;45467;-58
2022/12/27 02:17:59;;;;;;;;;2.50;2.00;;;;;7.67;69.28;102180.66;5017413;28;45534;-57
2022/12/27 02:20:27;;;;;;;;;2.50;2.25;;;;;7.60;68.94;102165.78;4999183;28;45485;-59
2022/12/27 02:26:45;;;;;;;;;2.00;2.00;;;;;7.65;68.83;102175.38;5017211;28;45672;-57
2022/12/27 02:29:15;;;;;;;;;1.75;1.75;;;;;7.57;69.61;102172.03;5017381;28;45443;-58
2022/12/27 02:31:55;;;;;;;;;2.00;2.00;;;;;7.62;69.66;102172.78;5017470;28;45284;-61
2022/12/27 02:34:29;;;;;;;;;3.75;2.50;;;;;7.62;69.38;102172.78;5017612;28;45338;-58
2022/12/27 02:37:00;;;;;;;;;6.50;4.75;;;;;7.64;69.67;102173.63;4999393;28;45450;-58
2022/12/27 02:39:29;;;;;;;;;7.50;4.75;;;;;7.57;69.66;102161.44;5017465;28;45249;-57
2022/12/27 02:53:28;;;;;;;;;5.50;2.25;;;;;7.44;69.88;102151.09;5016961;28;45415;-59
2022/12/27 02:59:14;;;;;;;;;2.00;2.00;;;;;7.52;69.80;102180.94;5017356;28;45819;-57
2022/12/27 03:05:23;;;;;;;;;2.00;2.00;;;;;7.53;70.36;102185.31;5017646;28;45415;-58
2022/12/27 03:08:07;;;;;;;;;1.25;1.25;;;;;7.51;70.02;102198.59;5013062;28;45403;-57
2022/12/27 03:16:54;;;;;;;;;10.50;5.00;;;;;7.49;69.93;102199.53;5036661;28;45453;-56
2022/12/27 03:25:28;;;;;;;;;6.00;2.00;;;;;7.51;70.20;102192.41;5036498;28;45258;-57
2022/12/27 03:34:31;;;;;;;;;6.25;2.00;;;;;7.46;70.33;102200.47;4916830;28;45511;-57
2022/12/27 03:40:09;;;;;;;;;2.00;2.00;;;;;7.48;70.71;102188.06;5036402;28;45343;-58
2022/12/27 03:48:21;;;;;;;;;5.50;3.25;;;;;7.49;70.45;102191.59;5005333;28;45380;-58
2022/12/27 03:50:56;;;;;;;;;1.00;1.00;;;;;7.47;70.71;102186.31;5018750;28;45480;-58
2022/12/27 03:53:33;;;;;;;;;5.00;5.00;;;;;7.53;70.34;102195.91;5036319;28;45471;-58
2022/12/27 03:55:58;;;;;;;;;2.50;2.50;;;;;7.52;70.54;102200.34;5035840;28;46776;-58
2022/12/27 03:58:24;;;;;;;;;1.00;1.00;;;;;7.52;71.20;102187.09;5035822;28;45340;-58
2022/12/27 04:00:50;;;;;;;;;3.25;3.25;;;;;7.53;70.59;102194.13;5036171;28;45310;-57
2022/12/27 04:03:15;;;;;;;;;2.25;2.25;;;;;7.51;70.39;102201.25;5018455;28;45559;-55
2022/12/27 04:05:40;;;;;;;;;4.75;4.00;;;;;7.52;70.41;102202.09;5036406;28;46288;-57
2022/12/27 04:35:25;;;;;;;;;2.25;2.25;;;;;7.38;70.78;102205.00;5015843;28;45167;-62
2022/12/27 04:37:50;;;;;;;;;8.75;5.00;;;;;7.38;70.82;102197.06;5015282;28;45943;-59
2022/12/27 04:54:57;;;;;;;;;4.75;4.75;;;;;7.34;70.75;102190.09;5018907;28;45421;-58
2022/12/27 04:56:51;;;;;;;;;2.00;0.50;;;;;7.34;70.74;102185.66;5006097;28;45446;-57
2022/12/27 05:02:04;;;;;;;;;2.00;2.00;;;;;7.36;71.19;102188.28;5018966;28;45268;-56
2022/12/27 05:04:35;;;;;;;;;2.25;1.75;;;;;7.19;70.67;102162.09;5019279;28;45340;-58
2022/12/27 05:13:58;;;;;;;;;4.00;4.00;;;;;7.34;70.79;102192.72;5019496;28;45530;-58
2022/12/27 05:15:15;;;;;;;;;5.75;5.75;;;;;7.33;70.95;102183.03;5038823;28;45344;-56
2022/12/27 05:17:40;;;;;;;;;4.25;2.00;;;;;7.31;71.39;102193.66;5038566;28;45335;-57
2022/12/27 05:20:06;;;;;;;;;5.00;4.00;;;;;7.32;70.49;102191.88;5038535;28;45469;-57
2022/12/27 05:25:33;;;;;;;;;2.50;1.50;;;;;7.33;70.99;102196.28;5038869;28;45371;-57
2022/12/27 05:27:59;;;;;;;;;6.50;1.75;;;;;7.33;70.97;102196.28;5020492;28;45382;-57
2022/12/27 05:30:24;;;;;;;;;4.25;4.25;;;;;7.34;70.83;102190.09;5038067;28;46100;-59
2022/12/27 05:32:55;;;;;;;;;6.00;4.00;;;;;7.33;71.00;102189.22;5038216;28;45427;-57
2022/12/27 05:35:21;;;;;;;;;2.00;2.00;;;;;7.38;71.22;102184.69;5037708;28;45240;-57
2022/12/27 05:37:47;;;;;;;;;4.75;4.00;;;;;7.38;70.77;102178.53;5038527;28;45308;-57
2022/12/27 05:40:13;;;;;;;;;3.25;3.25;;;;;7.33;71.11;102180.41;5038030;28;46177;-56
2022/12/27 05:42:38;;;;;;;;;1.00;1.00;;;;;7.35;70.99;102179.47;5038291;28;45831;-57
2022/12/27 05:45:04;;;;;;;;;5.00;2.00;;;;;7.37;70.59;102179.44;5038049;28;45393;-57
2022/12/27 05:47:30;;;;;;;;;2.00;2.00;;;;;7.42;70.98;102182.00;5037494;28;45590;-57
2022/12/27 05:49:55;;;;;;;;;4.50;4.50;;;;;7.46;71.07;102183.69;5037238;28;46237;-58
2022/12/27 05:52:20;;;;;;;;;4.50;4.00;;;;;7.42;71.11;102169.63;5038014;28;45380;-57
2022/12/27 05:54:46;;;;;;;;;5.00;2.50;;;;;7.46;71.22;102170.47;5037319;28;45382;-57
2022/12/27 05:57:11;;;;;;;;;5.00;2.75;;;;;7.27;70.49;102138.16;5038257;28;45318;-57
2022/12/27 05:59:36;;;;;;;;;3.75;2.00;;;;;7.43;70.56;102163.47;5037847;28;46790;-57
2022/12/27 06:02:02;;;;;;;;;2.00;2.00;;;;;7.41;71.12;102165.22;5037849;28;45472;-57
2022/12/27 06:04:27;;;;;;;;;5.50;3.75;;;;;7.43;70.60;102163.47;5037809;28;45372;-56
2022/12/27 06:06:53;;;;;;;;;4.75;4.75;;;;;7.42;70.44;102160.81;5037889;28;45476;-58
2022/12/27 06:09:18;;;;;;;;;4.00;4.00;;;;;7.38;70.32;102152.94;5037761;28;46130;-56
2022/12/27 06:11:43;;;;;;;;;2.00;2.00;;;;;7.35;70.47;102149.47;5027218;28;46336;-57
2022/12/27 06:14:09;;;;;;;;;4.00;4.00;;;;;7.38;70.77;102165.28;5018145;28;45397;-56
2022/12/27 06:16:34;;;;;;;;;1.75;1.50;;;;;7.39;70.92;102167.03;5017841;28;45554;-57
2022/12/27 06:18:59;;;;;;;;;1.75;1.75;;;;;7.38;70.74;102170.59;5017612;28;45403;-57
2022/12/27 06:21:25;;;;;;;;;3.75;3.75;;;;;7.37;70.99;102168.84;5017729;28;45322;-58
2022/12/27 06:23:50;;;;;;;;;5.00;4.00;;;;;7.36;70.53;102161.81;5018094;28;45395;-58
2022/12/27 06:26:22;;;;;;;;;6.00;4.00;;;;;7.36;71.17;102162.69;5017573;28;45249;-57
2022/12/27 06:28:49;;;;;;;;;3.75;2.75;;;;;7.30;70.67;102161.94;5017634;28;46332;-58
2022/12/27 06:31:16;;;;;;;;;2.75;2.75;;;;;7.33;70.77;102170.69;4999535;28;45358;-58
2022/12/27 06:33:42;;;;;;;;;3.75;3.50;;;;;7.34;70.99;102166.25;5017224;28;45340;-56
2022/12/27 06:36:10;;;;;;;;;12.50;5.00;;;;;7.28;70.87;102156.63;5017427;28;45323;-57
2022/12/27 06:38:36;;;;;;;;;3.50;2.75;;;;;7.33;70.43;102164.53;5017222;28;45378;-57
2022/12/27 06:41:06;;;;;;;;;4.50;3.00;;;;;7.29;70.40;102157.50;5017101;28;45329;-58
2022/12/27 06:43:32;;;;;;;;;4.50;4.00;;;;;7.29;70.75;102161.06;5017501;28;45414;-56
2022/12/27 06:46:00;;;;;;;;;3.00;3.00;;;;;7.32;70.81;102170.72;5017499;28;45590;-57
2022/12/27 06:48:26;;;;;;;;;5.75;4.00;;;;;7.30;70.54;102167.22;4999360;28;46241;-56
2022/12/27 06:50:51;;;;;;;;;4.00;4.00;;;;;7.27;70.53;102161.97;5017706;28;45383;-56
2022/12/27 06:53:17;;;;;;;;;2.00;2.00;;;;;7.30;70.68;102173.38;5017792;28;45324;-56
2022/12/27 06:55:42;;;;;;;;;7.50;3.75;;;;;7.32;70.65;102170.72;5018144;28;45449;-57
2022/12/27 06:58:08;;;;;;;;;8.50;4.50;;;;;7.30;70.55;102168.09;4999715;28;53717;-58
2022/12/27 07:00:33;;;;;;;;;3.75;3.75;;;;;7.34;70.31;102166.25;4999713;28;46151;-58
2022/12/27 07:02:58;;;;;;;;;1.00;1.00;;;;;7.30;70.38;102159.28;5017308;28;45304;-58
2022/12/27 07:05:24;;;;;;;;;4.75;4.75;;;;;7.36;70.61;102172.41;5017547;28;46025;-58
2022/12/27 07:07:52;;;;;;;;;4.75;2.75;;;;;7.38;70.36;102170.59;5017210;28;45614;-57
2022/12/27 07:10:17;;;;;;;;;5.25;5.25;;;;;7.38;70.42;102165.28;5017319;28;45336;-58
2022/12/27 07:12:42;;;;;;;;;5.50;5.00;;;;;7.43;70.46;102174.06;5014286;28;45725;-57
2022/12/27 07:15:08;;;;;;;;;4.50;4.25;;;;;7.46;70.52;102167.81;5016829;28;45590;-56
2022/12/27 07:17:34;;;;;;;;;2.50;2.50;;;;;7.47;70.33;102174.84;5017372;28;45452;-58
2022/12/27 07:20:00;;;;;;;;;6.00;4.00;;;;;7.48;70.73;102176.59;5017099;28;45391;-57
2022/12/27 07:22:26;;;;;;;;;7.00;5.00;;;;;7.46;70.24;102176.63;5015393;28;45471;-57
2022/12/27 07:24:51;;;;;;;;;4.75;1.50;;;;;7.46;70.02;102179.28;5016018;28;45358;-59
2022/12/27 07:27:16;;;;;;;;;2.50;2.50;;;;;7.46;70.15;102187.22;5015660;28;66289;-58
2022/12/27 07:29:42;;;;;;;;;5.25;3.25;;;;;7.47;70.31;102191.63;5015003;28;51191;-57
2022/12/27 07:32:07;;;;;;;;;5.25;4.25;;;;;7.50;70.52;102178.31;5016637;28;45454;-58
2022/12/27 07:34:32;;;;;;;;;5.00;5.00;;;;;7.53;69.87;102190.63;5016765;28;45424;-59
2022/12/27 07:36:58;;;;;;;;;5.00;4.00;;;;;7.51;69.48;102185.34;5015961;28;46224;-56
2022/12/27 07:39:23;;;;;;;;;8.00;4.00;;;;;7.53;70.07;102199.44;5016690;28;45276;-57
2022/12/27 07:41:48;;;;;;;;;5.50;4.00;;;;;7.52;70.26;102183.56;5016517;28;45462;-57
2022/12/27 07:44:14;;;;;;;;;6.00;6.00;;;;;7.50;69.73;102170.38;5015303;28;45310;-58
2022/12/27 07:46:39;;;;;;;;;5.25;5.25;;;;;7.50;69.73;102178.31;5016147;28;45278;-57
2022/12/27 07:49:06;;;;;;;;;4.00;4.00;;;;;7.52;69.99;102187.09;5016264;28;45260;-58
2022/12/27 07:51:31;;;;;;;;;5.00;2.75;;;;;7.47;69.81;102180.16;5015173;28;45273;-58
2022/12/27 07:53:57;;;;;;;;;5.75;4.25;;;;;7.50;70.48;102188.91;5016468;28;45582;-62
2022/12/27 07:56:25;;;;;;;;;5.00;5.00;;;;;7.45;69.93;102188.13;5019055;28;46151;-61
2022/12/27 07:58:50;;;;;;;;;4.00;3.75;;;;;7.49;69.25;102186.28;5015759;28;45443;-57
2022/12/27 08:01:18;;;;;;;;;2.75;2.00;;;;;7.45;69.91;102187.25;5016162;28;45419;-57
2022/12/27 08:03:44;;;;;;;;;4.75;4.00;;;;;7.48;69.78;102179.25;5016266;28;45607;-57
2022/12/27 08:06:35;;;;;;;;;6.25;4.00;;;;;7.52;69.49;102183.56;5015484;28;46539;-57
2022/12/27 08:09:05;;;;;;;;;1.50;1.50;;;;;7.54;69.79;102181.78;5012946;28;45328;-57
2022/12/27 08:11:31;;;;;;;;;2.00;2.00;;;;;7.54;68.98;102179.13;5015863;28;45365;-57
2022/12/27 08:13:56;;;;;;;;;7.50;4.75;;;;;7.56;69.39;102188.81;5013435;28;45667;-57
2022/12/27 08:16:24;;;;;;;;;4.00;4.00;;;;;7.55;69.29;102184.41;5015623;28;45274;-57
2022/12/27 08:18:50;;;;;;;;;12.00;4.00;;;;;7.60;69.20;102189.63;5000599;28;45511;-57
2022/12/27 08:21:16;;;;;;;;;3.50;3.50;;;;;7.58;69.32;102184.34;5019460;28;45435;-58
2022/12/27 08:23:41;;;;;;;;;6.75;5.00;;;;;7.59;69.10;102191.41;5019679;28;45451;-58
2022/12/27 08:26:07;;;;;;;;;5.00;3.00;;;;;7.63;69.02;102187.78;5019326;28;46334;-57
2022/12/27 08:28:33;;;;;;;;;7.25;4.50;;;;;7.65;69.01;102195.69;5001543;28;45341;-58
2022/12/27 08:30:59;;;;;;;;;4.50;4.50;;;;;7.59;69.48;102183.44;5019405;28;45910;-57
2022/12/27 08:33:25;;;;;;;;;5.50;5.50;;;;;7.67;68.80;102193.88;5019875;28;45634;-58
2022/12/27 08:35:51;;;;;;;;;5.00;3.25;;;;;7.62;69.02;102186.03;5019399;28;46219;-57
2022/12/27 08:38:17;;;;;;;;;5.50;5.00;;;;;7.72;69.39;102202.63;5019445;28;45255;-57
2022/12/27 08:40:43;;;;;;;;;7.50;3.25;;;;;7.75;68.78;102201.69;5019301;28;45222;-58
2022/12/27 08:43:10;;;;;;;;;10.00;5.00;;;;;7.73;68.82;102203.50;5019418;28;45758;-58
2022/12/27 08:45:36;;;;;;;;;7.50;5.50;;;;;7.76;68.43;102208.75;5018370;28;45523;-58
2022/12/27 08:48:02;;;;;;;;;5.00;2.25;;;;;7.64;69.08;102200.13;5018650;28;45418;-58
2022/12/27 08:50:28;;;;;;;;;7.25;5.00;;;;;7.62;68.71;102201.94;5019377;28;45434;-58
2022/12/27 08:52:58;;;;;;;;;8.75;6.25;;;;;7.72;69.41;102201.75;5019026;28;45442;-56
2022/12/27 08:55:25;;;;;;;;;7.00;5.00;;;;;7.74;69.26;102213.19;5019170;28;45709;-58
2022/12/27 08:58:02;;;;;;;;;7.25;7.25;;;;;7.74;68.75;102211.41;5018765;28;45374;-58
2022/12/27 09:00:28;;;;;;;;;9.00;6.25;;;;;7.79;69.13;102211.31;5019240;28;45442;-56
2022/12/27 09:02:54;;;;;;;;;13.50;10.00;;;;;7.78;69.67;102212.22;5019131;28;45261;-57
2022/12/27 09:05:20;;;;;;;;;9.50;6.75;;;;;7.83;69.12;102220.97;5018925;28;46021;-57
2022/12/27 09:07:46;;;;;;;;;6.00;6.00;;;;;7.81;68.82;102217.47;5017877;28;45361;-58
2022/12/27 09:10:12;;;;;;;;;6.25;5.00;;;;;7.84;68.74;102228.91;5001169;28;45492;-57
2022/12/27 09:12:38;;;;;;;;;11.25;6.00;;;;;7.87;69.05;102230.59;5016209;28;45418;-58
2022/12/27 09:15:04;;;;;;;;;7.25;5.75;;;;;7.88;68.54;102229.69;5018809;28;46170;-58
2022/12/27 09:17:30;;;;;;;;;6.25;5.75;;;;;7.86;68.32;102227.09;5018916;28;45387;-58
2022/12/27 09:19:56;;;;;;;;;5.50;3.50;;;;;7.91;68.04;102230.50;5018761;28;45454;-58
2022/12/27 09:22:21;;;;;;;;;9.25;8.00;;;;;7.91;68.41;102229.63;5018852;28;45685;-57
2022/12/27 09:24:47;;;;;;;;;6.50;5.00;;;;;7.93;68.04;102220.75;5018256;28;46293;-58
2022/12/27 09:27:12;;;;;;;;;3.50;3.50;;;;;7.96;68.07;102220.72;5018196;28;45402;-58
2022/12/27 09:29:38;;;;;;;;;5.00;5.00;;;;;7.97;67.79;102208.34;5017570;28;45546;-58
2022/12/27 09:32:03;;;;;;;;;6.25;6.25;;;;;7.98;68.04;102202.13;5018763;28;45364;-58
2022/12/27 09:34:29;;;;;;;;;10.00;6.00;;;;;8.07;67.48;102216.97;5000960;28;46345;-58
2022/12/27 09:36:54;;;;;;;;;5.75;5.75;;;;;8.09;67.27;102226.66;5018641;28;45442;-60
2022/12/27 09:39:20;;;;;;;;;6.75;6.50;;;;;8.10;66.94;102227.53;5018573;28;45237;-57
2022/12/27 09:41:57;;;;;;;;;3.75;3.75;;;;;8.16;67.88;102238.88;5018677;28;45301;-58
2022/12/27 09:44:34;;;;;;;;;6.00;6.00;;;;;8.18;67.04;102234.41;5018349;28;46723;-58
2022/12/27 09:47:23;;;;;;;;;4.50;4.50;;;;;8.16;67.11;102228.25;5018231;28;45498;-57
2022/12/27 09:49:52;;;;;;;;;5.25;5.25;;;;;8.24;67.21;102239.59;5017999;28;45375;-57
2022/12/27 09:52:44;;;;;;;;;8.75;5.50;;;;;8.15;66.98;102229.16;5018052;28;45336;-57
2022/12/27 09:55:25;;;;;;;;;5.50;5.50;;;;;8.20;66.93;102237.91;5017949;28;45304;-57
2022/12/27 09:58:04;;;;;;;;;6.00;5.25;;;;;8.17;67.04;102221.19;5017656;28;45355;-56
2022/12/27 10:00:29;;;;;;;;;5.75;5.75;;;;;8.16;66.71;102208.84;5000496;28;45270;-58
2022/12/27 10:02:57;;;;;;;;;6.25;6.25;;;;;8.26;66.93;102235.13;5000140;28;45673;-57
2022/12/27 10:05:30;;;;;;;;;5.75;5.00;;;;;8.28;66.28;102224.50;5018071;28;46284;-60
2022/12/27 10:08:01;;;;;;;;;6.75;6.75;;;;;8.27;66.30;102223.63;5018101;28;45419;-57
2022/12/27 10:11:01;;;;;;;;;7.00;7.00;;;;;8.35;67.27;102236.75;5000549;28;45382;-58
2022/12/27 10:13:35;;;;;;;;;16.25;10.00;;;;;8.42;66.13;102232.19;5015013;28;45352;-56
2022/12/27 10:16:19;;;;;;;;;13.00;6.00;;;;;8.42;65.79;102226.88;5017350;28;46491;-57
2022/12/27 10:19:16;;;;;;;;;12.00;8.50;;;;;8.38;65.95;102219.91;5017885;28;45323;-58
2022/12/27 10:22:04;;;;;;;;;7.75;6.25;;;;;8.35;65.80;102215.56;5017676;28;45284;-57
2022/12/27 10:24:43;;;;;;;;;15.75;10.50;;;;;8.27;66.70;102204.19;5018347;28;45637;-56
2022/12/27 10:27:14;;;;;;;;;6.25;5.00;;;;;8.42;66.57;102216.28;5016493;28;45475;-59
2022/12/27 10:29:41;;;;;;;;;3.00;3.00;;;;;8.53;66.03;102216.94;5017141;28;45365;-57
2022/12/27 10:32:12;;;;;;;;;5.25;5.00;;;;;8.57;65.20;102215.94;5017305;28;45400;-57
2022/12/27 10:34:38;;;;;;;;;5.75;4.00;;;;;8.64;65.53;102208.75;5016205;28;45453;-58
2022/12/27 10:37:04;;;;;;;;;7.00;5.00;;;;;8.68;64.93;102208.63;5017347;28;46038;-57
2022/12/27 10:39:33;;;;;;;;;8.50;5.00;;;;;8.77;64.46;102207.56;5015437;28;45339;-58
2022/12/27 10:42:40;;;;;;;;;4.50;4.50;;;;;8.88;64.86;102202.03;5016707;28;45288;-57
2022/12/27 10:45:24;;;;;;;;;5.00;5.00;;;;;8.96;64.81;102202.69;5008319;28;45440;-57
2022/12/27 10:47:51;;;;;;;;;5.50;3.25;;;;;8.96;64.14;102202.69;5016929;28;45367;-58
2022/12/27 10:50:21;;;;;;;;;5.50;5.00;;;;;9.03;63.69;102204.31;5016723;28;45719;-59
2022/12/27 10:52:46;;;;;;;;;5.00;5.00;;;;;9.12;63.74;102204.09;5016989;28;45462;-57
2022/12/27 10:55:30;;;;;;;;;6.50;3.00;;;;;9.22;63.33;102202.94;5017144;28;45394;-57
2022/12/27 10:57:55;;;;;;;;;5.25;2.50;;;;;9.26;63.79;102191.34;5017151;28;45444;-57
2022/12/27 11:00:22;;;;;;;;;5.75;5.75;;;;;9.41;63.03;102196.25;5016855;28;45444;-58
2022/12/27 11:02:59;;;;;;;;;9.50;6.00;;;;;9.53;62.58;102196.88;5015646;28;45331;-58
2022/12/27 11:05:30;;;;;;;;;5.75;3.00;;;;;9.53;62.54;102186.25;5017038;28;45403;-58
2022/12/27 11:07:56;;;;;;;;;8.25;6.50;;;;;9.68;61.68;102199.09;5016938;28;46148;-58
2022/12/27 11:10:26;;;;;;;;;2.75;2.75;;;;;9.74;60.79;102201.59;5017173;28;45360;-59
2022/12/27 11:13:05;;;;;;;;;2.50;2.50;;;;;9.82;61.62;102186.31;5036579;28;45222;-57
2022/12/27 11:15:36;;;;;;;;;6.50;5.00;;;;;9.86;61.46;102197.72;5018932;28;45393;-58
2022/12/27 11:18:17;;;;;;;;;8.25;5.00;;;;;9.76;61.40;102175.84;5018501;28;47534;-57
2022/12/27 11:20:50;;;;;;;;;4.25;3.50;;;;;9.87;60.00;102181.72;5036791;28;45399;-57
2022/12/27 11:23:18;;;;;;;;;5.00;5.00;;;;;9.93;61.17;102176.25;5036704;28;45450;-57
2022/12/27 11:25:56;;;;;;;;;6.25;5.00;;;;;10.00;59.05;102180.47;5036736;28;45582;-58
2022/12/27 11:28:37;;;;;;;;;5.50;5.50;;;;;10.02;60.92;102162.69;5036252;28;46322;-58
2022/12/27 11:31:15;;;;;;;;;3.00;3.00;;;;;10.08;59.70;102155.47;5036239;28;45363;-57
2022/12/27 11:33:44;;;;;;;;;4.50;4.50;;;;;10.14;60.09;102144.66;5036353;28;45318;-58
2022/12/27 11:36:11;;;;;;;;;6.00;2.25;;;;;10.22;59.75;102140.03;5036407;28;45550;-58
2022/12/27 11:38:38;;;;;;;;;3.00;3.00;;;;;10.23;59.13;102129.34;5036604;28;45943;-59
2022/12/27 11:41:07;;;;;;;;;3.25;3.00;;;;;10.28;59.07;102115.88;5035916;28;45368;-58
2022/12/27 11:43:39;;;;;;;;;5.00;5.00;;;;;10.39;58.78;102112.91;5018216;28;45270;-56
2022/12/27 11:46:35;;;;;;;;;3.00;1.67;;;;;10.36;58.59;102116.53;5036860;28;45237;-56
2022/12/27 11:49:05;;;;;;;;;3.00;3.00;;;;;10.33;56.49;102124.63;5025237;28;46634;-58
2022/12/27 11:52:06;;;;;;;;;6.50;3.00;;;;;10.30;57.05;102120.28;5035186;28;45462;-58
2022/12/27 11:54:59;;;;;;;;;1.00;1.00;;;;;10.41;57.72;102119.03;4996792;28;45514;-58
2022/12/27 11:57:53;;;;;;;;;6.00;2.00;;;;;10.43;56.75;102115.44;5036420;28;45268;-57
2022/12/27 12:00:22;;;;;;;;;2.00;2.00;;;;;10.40;57.13;102118.19;5036040;28;46759;-58
2022/12/27 12:03:30;;;;;;;;;6.00;2.00;;;;;10.40;56.23;102126.16;5036019;28;45309;-58
2022/12/27 12:06:13;;;;;;;;;6.00;4.00;;;;;10.38;56.42;102122.69;5036064;28;45438;-58
2022/12/27 12:09:18;;;;;;;;;2.00;2.00;;;;;10.36;55.92;102110.34;5036637;28;45285;-56
2022/12/27 12:12:01;;;;;;;;;6.00;3.00;;;;;10.53;57.55;102121.31;5035725;28;47289;-58
2022/12/27 12:14:44;;;;;;;;;5.75;5.75;;;;;10.52;56.76;102133.75;5035890;28;45304;-58
2022/12/27 12:17:47;;;;;;;;;6.75;6.75;;;;;10.56;58.34;102118.59;5036245;28;45393;-57
2022/12/27 12:20:15;;;;;;;;;5.00;5.00;;;;;10.51;57.15;102123.16;5036041;28;45617;-58
2022/12/27 12:23:00;;;;;;;;;5.75;5.75;;;;;10.50;56.28;102119.63;5035866;28;45281;-58
2022/12/27 12:25:48;;;;;;;;;1.00;1.00;;;;;10.57;55.70;102125.66;5035359;28;45304;-58
2022/12/27 12:28:25;;;;;;;;;1.67;1.67;;;;;10.60;56.47;102109.59;5035816;28;45304;-57
2022/12/27 12:31:04;;;;;;;;;3.00;3.00;;;;;10.60;54.31;102086.50;5035886;28;45620;-58
2022/12/27 12:33:51;;;;;;;;;2.00;2.00;;;;;10.69;54.97;102106.63;5035314;28;45404;-57
2022/12/27 12:36:40;;;;;;;;;0.67;0.67;;;;;10.64;54.21;102093.47;5035657;28;45332;-58
2022/12/27 12:39:22;;;;;;;;;2.00;2.00;;;;;10.62;54.25;102078.47;5035758;28;45455;-57
2022/12/27 12:42:06;;;;;;;;;1.00;1.00;;;;;10.64;55.33;102076.63;5036018;28;45258;-57
2022/12/27 12:44:48;;;;;;;;;2.00;1.00;;;;;10.68;54.08;102078.28;5035286;28;45245;-58
2022/12/27 12:47:16;;;;;;;;;1.00;0.67;;;;;10.69;53.16;102080.03;5017283;28;45381;-58
2022/12/27 12:49:47;;;;;;;;;3.00;1.00;;;;;10.70;54.88;102086.22;5036047;28;45281;-57
2022/12/27 12:52:57;;;;;;;;;2.00;1.00;;;;;10.68;55.43;102072.97;5035581;28;45860;-56
2022/12/27 12:55:36;;;;;;;;;0.00;0.00;;;;;10.71;55.17;102066.66;4954399;28;45440;-58
2022/12/27 12:58:41;;;;;;;;;1.00;1.00;;;;;10.68;56.38;102064.09;4954409;28;45362;-58
2022/12/27 13:01:27;;;;;;;;;2.33;1.33;;;;;10.67;55.55;102054.38;4984140;28;45552;-57
2022/12/27 13:04:11;;;;;;;;;2.00;1.00;;;;;10.66;55.49;102052.63;5037527;28;45753;-58
2022/12/27 13:07:14;;;;;;;;;4.25;2.00;;;;;10.72;55.97;102057.75;5039194;28;46178;-57
2022/12/27 13:09:48;;;;;;;;;0.00;0.00;;;;;10.73;54.29;102040.88;5039016;28;45338;-58
2022/12/27 13:12:34;;;;;;;;;1.67;1.00;;;;;10.71;54.75;102042.72;5024933;28;45263;-59
2022/12/27 13:15:23;;;;;;;;;1.00;1.00;;;;;10.75;56.08;102039.91;5018827;28;45240;-58
2022/12/27 13:18:06;;;;;;;;;1.00;1.00;;;;;10.75;54.96;102026.59;5017766;28;45347;-57
2022/12/27 13:20:40;;;;;;;;;2.00;1.00;;;;;10.80;55.92;102029.94;5019338;28;45490;-57
2022/12/27 13:23:31;;;;;;;;;2.00;1.00;;;;;10.80;55.70;102029.09;5001046;28;45491;-57
2022/12/27 13:25:59;;;;;;;;;1.67;1.33;;;;;10.77;56.26;102023.88;5019452;28;45387;-57
2022/12/27 13:28:35;;;;;;;;;1.00;1.00;;;;;10.80;55.89;102013.13;5019230;28;45390;-59
2022/12/27 13:31:12;;;;;;;;;3.00;1.67;;;;;10.79;54.78;102011.38;5018666;28;45372;-57
2022/12/27 13:33:59;;;;;;;;;1.00;1.00;;;;;10.86;56.49;102011.13;5018491;28;45311;-57